createdAt,value
2022-08-27T00:00:04.332Z,19.00
2022-08-27T00:03:12.804Z,19.80
2022-08-27T00:06:18.501Z,18.90
2022-08-27T00:09:27.135Z,18.25
2022-08-27T00:12:33.093Z,20.00
2022-08-27T00:15:38.332Z,18.83
2022-08-27T00:18:48.148Z,17.35
2022-08-27T00:21:53.664Z,18.63
2022-08-27T00:24:58.811Z,19.52
2022-08-27T00:28:03.968Z,19.45
2022-08-27T00:31:12.452Z,17.65
2022-08-27T00:34:20.607Z,18.73
2022-08-27T00:37:25.762Z,19.92
2022-08-27T00:40:31.265Z,19.95
2022-08-27T00:43:46.792Z,18.45
2022-08-27T00:46:53.422Z,18.45
2022-08-27T00:50:02.100Z,18.80
2022-08-27T00:53:10.694Z,18.10
2022-08-27T00:56:18.373Z,19.10
2022-08-27T00:59:25.120Z,18.95
2022-08-27T01:02:31.084Z,19.95
2022-08-27T01:05:39.867Z,20.25
2022-08-27T01:08:47.266Z,19.65
2022-08-27T01:11:53.185Z,19.20
2022-08-27T01:14:58.916Z,19.88
2022-08-27T01:18:05.927Z,20.77
2022-08-27T01:21:17.435Z,19.67
2022-08-27T01:24:30.700Z,20.05
2022-08-27T01:27:36.103Z,19.88
2022-08-27T01:30:42.573Z,19.65
2022-08-27T01:33:57.018Z,20.55
2022-08-27T01:37:02.105Z,20.63
2022-08-27T01:40:13.638Z,20.77
2022-08-27T01:43:21.472Z,19.88
2022-08-27T01:46:28.004Z,18.80
2022-08-27T01:49:33.178Z,20.02
2022-08-27T01:52:38.601Z,20.52
2022-08-27T01:55:48.284Z,21.23
2022-08-27T01:58:53.752Z,20.63
2022-08-27T02:01:59.302Z,20.83
2022-08-27T02:05:04.764Z,20.98
2022-08-27T02:08:10.459Z,19.85
2022-08-27T02:11:18.221Z,20.67
2022-08-27T02:14:23.439Z,19.65
2022-08-27T02:17:29.032Z,21.13
2022-08-27T02:20:34.556Z,20.30
2022-08-27T02:23:40.116Z,20.38
2022-08-27T02:26:48.026Z,21.20
2022-08-27T02:29:53.445Z,22.08
2022-08-27T02:32:58.873Z,21.35
2022-08-27T02:36:03.903Z,21.17
2022-08-27T02:39:11.407Z,20.90
2022-08-27T02:42:19.430Z,20.60
2022-08-27T02:45:24.709Z,21.30
2022-08-27T02:48:29.766Z,21.05
2022-08-27T02:51:35.061Z,20.55
2022-08-27T02:54:40.504Z,21.55
2022-08-27T02:57:48.722Z,20.25
2022-08-27T03:00:54.331Z,21.58
2022-08-27T03:03:59.732Z,20.73
2022-08-27T03:07:05.212Z,20.83
2022-08-27T03:10:11.525Z,21.00
2022-08-27T03:13:19.424Z,21.25
2022-08-27T03:16:24.531Z,21.45
2022-08-27T03:19:27.687Z,22.48
2022-08-27T03:22:33.010Z,23.65
2022-08-27T03:25:38.389Z,21.95
2022-08-27T03:28:47.110Z,23.23
2022-08-27T03:31:52.384Z,22.95
2022-08-27T03:34:59.958Z,23.60
2022-08-27T03:38:04.990Z,23.77
2022-08-27T03:41:10.441Z,26.20
2022-08-27T03:44:21.319Z,25.85
2022-08-27T03:47:26.917Z,25.80
2022-08-27T03:50:32.110Z,27.08
2022-08-27T03:53:37.547Z,27.23
2022-08-27T03:56:42.659Z,26.75
2022-08-27T03:59:54.311Z,26.38
2022-08-27T04:02:59.849Z,27.20
2022-08-27T04:06:05.291Z,26.30
2022-08-27T04:09:10.385Z,26.83
2022-08-27T04:12:15.637Z,27.13
2022-08-27T04:15:23.511Z,27.20
2022-08-27T04:18:28.821Z,28.10
2022-08-27T04:21:34.254Z,26.95
2022-08-27T04:24:41.152Z,28.45
2022-08-27T04:27:47.208Z,30.80
2022-08-27T04:30:54.881Z,31.33
2022-08-27T04:34:00.157Z,30.80
2022-08-27T04:37:06.228Z,32.90
2022-08-27T04:40:12.326Z,31.40
2022-08-27T04:43:17.871Z,31.55
2022-08-27T04:46:28.400Z,33.85
2022-08-27T04:49:34.205Z,31.77
2022-08-27T04:52:40.796Z,30.45
2022-08-27T04:55:46.754Z,33.70
2022-08-27T04:58:52.476Z,34.20
2022-08-27T05:02:00.287Z,35.53
2022-08-27T05:05:14.211Z,36.90
2022-08-27T05:08:21.197Z,35.50
2022-08-27T05:11:27.431Z,39.78
2022-08-27T05:14:33.132Z,39.60
2022-08-27T05:17:40.892Z,37.80
2022-08-27T05:20:47.460Z,39.90
2022-08-27T05:23:52.619Z,39.65
2022-08-27T05:26:57.804Z,39.75
2022-08-27T05:30:03.155Z,38.47
2022-08-27T05:33:11.404Z,38.53
2022-08-27T05:36:23.882Z,38.13
2022-08-27T05:39:29.440Z,37.67
2022-08-27T05:42:35.213Z,37.30
2022-08-27T05:45:43.154Z,36.05
2022-08-27T05:48:51.616Z,35.72
2022-08-27T05:51:56.976Z,32.03
2022-08-27T05:55:02.212Z,31.80
2022-08-27T05:58:08.562Z,30.55
2022-08-27T06:01:11.667Z,30.90
2022-08-27T06:04:20.676Z,32.38
2022-08-27T06:07:26.326Z,35.42
2022-08-27T06:10:31.464Z,38.22
2022-08-27T06:13:37.716Z,34.10
2022-08-27T06:16:44.310Z,31.85
2022-08-27T06:19:52.261Z,31.15
2022-08-27T06:22:57.559Z,29.95
2022-08-27T06:26:03.180Z,31.80
2022-08-27T06:29:08.480Z,31.73
2022-08-27T06:32:14.989Z,32.70
2022-08-27T06:35:23.188Z,30.98
2022-08-27T06:41:33.444Z,31.35
2022-08-27T06:44:38.873Z,34.13
2022-08-27T06:47:43.943Z,36.40
2022-08-27T06:50:51.776Z,30.23
2022-08-27T06:57:02.588Z,25.98
2022-08-27T07:00:08.766Z,22.55
2022-08-27T07:03:14.468Z,25.40
2022-08-27T07:06:22.892Z,21.58
2022-08-27T07:09:27.989Z,18.98
2022-08-27T07:12:33.341Z,19.67
2022-08-27T07:15:42.077Z,28.08
2022-08-27T07:18:47.314Z,45.95
2022-08-27T07:21:56.421Z,46.55
2022-08-27T07:28:08.863Z,35.03
2022-08-27T07:31:17.403Z,33.47
2022-08-27T07:34:22.687Z,31.25
2022-08-27T07:37:35.224Z,28.55
2022-08-27T07:40:40.605Z,32.80
2022-08-27T07:43:58.511Z,45.45
2022-08-27T07:47:03.764Z,45.63
2022-08-27T07:50:09.800Z,43.75
2022-08-27T07:53:17.460Z,46.80
2022-08-27T07:59:27.907Z,30.67
2022-08-27T08:02:35.336Z,25.20
2022-08-27T08:05:44.238Z,37.55
2022-08-27T08:08:52.592Z,33.33
2022-08-27T08:11:57.970Z,30.88
2022-08-27T08:15:03.258Z,33.33
2022-08-27T08:18:08.821Z,31.10
2022-08-27T08:21:15.419Z,29.33
2022-08-27T08:24:23.919Z,27.67
2022-08-27T08:27:29.315Z,26.63
2022-08-27T08:30:34.557Z,25.73
2022-08-27T08:33:40.607Z,24.40
2022-08-27T08:36:46.280Z,24.40
2022-08-27T08:40:01.898Z,25.75
2022-08-27T08:43:09.251Z,26.33
2022-08-27T08:46:17.487Z,25.70
2022-08-27T08:49:30.476Z,25.30
2022-08-27T08:52:42.948Z,23.88
2022-08-27T08:55:52.299Z,25.25
2022-08-27T08:59:00.512Z,25.27
2022-08-27T09:02:09.099Z,26.85
2022-08-27T09:05:16.658Z,26.10
2022-08-27T09:08:36.738Z,28.33
2022-08-27T09:11:53.251Z,26.90
2022-08-27T09:15:01.411Z,25.70
2022-08-27T09:18:14.286Z,23.95
2022-08-27T09:21:28.078Z,21.35
2022-08-27T09:24:40.233Z,20.58
2022-08-27T09:27:48.220Z,20.23
2022-08-27T09:30:53.467Z,16.83
2022-08-27T09:33:59.468Z,16.95
2022-08-27T09:37:07.587Z,17.50
2022-08-27T09:40:23.096Z,18.60
2022-08-27T09:43:32.987Z,18.30
2022-08-27T09:46:38.216Z,19.08
2022-08-27T09:49:43.548Z,20.52
2022-08-27T09:52:55.168Z,17.17
2022-08-27T09:56:01.708Z,17.08
2022-08-27T09:59:10.467Z,17.40
2022-08-27T10:02:20.291Z,15.40
2022-08-27T10:05:28.384Z,16.75
2022-08-27T10:08:38.697Z,16.85
2022-08-27T10:11:47.908Z,16.15
2022-08-27T10:14:57.972Z,15.18
2022-08-27T10:18:05.503Z,13.38
2022-08-27T10:21:15.504Z,11.27
2022-08-27T10:24:25.831Z,12.38
2022-08-27T10:27:33.762Z,14.43
2022-08-27T10:30:51.355Z,14.32
2022-08-27T10:34:04.480Z,13.90
2022-08-27T10:37:19.825Z,13.90
2022-08-27T10:40:26.997Z,12.18
2022-08-27T10:43:49.756Z,12.98
2022-08-27T10:47:06.867Z,13.02
2022-08-27T10:50:17.945Z,14.05
2022-08-27T10:53:28.528Z,14.25
2022-08-27T10:56:36.384Z,13.10
2022-08-27T10:59:46.025Z,14.35
2022-08-27T11:02:56.139Z,13.65
2022-08-27T11:06:02.728Z,13.48
2022-08-27T11:09:09.975Z,14.90
2022-08-27T11:12:18.644Z,14.85
2022-08-27T11:15:25.928Z,15.50
2022-08-27T11:18:38.552Z,12.80
2022-08-27T11:21:46.538Z,12.55
2022-08-27T11:24:56.290Z,14.45
2022-08-27T11:28:02.596Z,15.85
2022-08-27T11:31:12.314Z,15.60
2022-08-27T11:34:23.595Z,14.77
2022-08-27T11:37:38.240Z,14.90
2022-08-27T11:40:52.854Z,14.10
2022-08-27T11:43:58.249Z,14.02
2022-08-27T11:47:12.566Z,13.95
2022-08-27T11:50:22.747Z,15.63
2022-08-27T11:53:29.119Z,15.50
2022-08-27T11:56:45.563Z,15.00
2022-08-27T11:59:50.744Z,16.73
2022-08-27T12:03:03.022Z,15.95
2022-08-27T12:06:21.089Z,15.02
2022-08-27T12:09:26.961Z,17.67
2022-08-27T12:12:36.934Z,18.75
2022-08-27T12:15:57.089Z,17.88
2022-08-27T12:19:07.226Z,18.55
2022-08-27T12:22:29.783Z,18.90
2022-08-27T12:25:37.760Z,17.45
2022-08-27T12:28:42.991Z,19.17
2022-08-27T12:31:49.777Z,18.33
2022-08-27T12:34:59.801Z,18.92
2022-08-27T12:38:12.361Z,18.17
2022-08-27T12:41:32.313Z,16.55
2022-08-27T12:44:49.538Z,16.85
2022-08-27T12:47:55.933Z,15.98
2022-08-27T12:51:03.127Z,16.40
2022-08-27T12:57:20.603Z,16.45
2022-08-27T13:00:27.001Z,15.43
2022-08-27T13:03:35.843Z,14.93
2022-08-27T13:06:46.998Z,18.38
2022-08-27T13:09:56.859Z,17.65
2022-08-27T13:13:12.271Z,15.75
2022-08-27T13:16:20.178Z,16.15
2022-08-27T13:19:27.423Z,16.60
2022-08-27T13:25:38.414Z,16.20
2022-08-27T13:28:46.823Z,14.77
2022-08-27T13:31:52.326Z,15.23
2022-08-27T13:34:57.928Z,14.70
2022-08-27T13:38:04.426Z,14.85
2022-08-27T13:41:10.656Z,14.15
2022-08-27T13:44:22.143Z,14.35
2022-08-27T13:47:28.828Z,14.63
2022-08-27T13:50:34.699Z,16.42
2022-08-27T13:53:52.803Z,14.45
2022-08-27T13:57:04.793Z,15.50
2022-08-27T14:00:18.590Z,15.60
2022-08-27T14:03:34.526Z,17.65
2022-08-27T14:06:43.304Z,16.23
2022-08-27T14:09:54.337Z,16.42
2022-08-27T14:13:01.416Z,15.48
2022-08-27T14:16:17.086Z,16.23
2022-08-27T14:19:28.531Z,15.68
2022-08-27T14:22:40.184Z,17.08
2022-08-27T14:25:45.511Z,17.00
2022-08-27T14:28:50.889Z,17.58
2022-08-27T14:31:58.806Z,16.88
2022-08-27T14:35:04.064Z,16.60
2022-08-27T14:38:14.781Z,17.92
2022-08-27T14:41:21.654Z,18.08
2022-08-27T14:44:27.860Z,21.08
2022-08-27T14:47:36.718Z,19.07
2022-08-27T14:50:42.501Z,18.02
2022-08-27T14:53:47.851Z,18.25
2022-08-27T14:56:54.511Z,19.25
2022-08-27T14:59:59.767Z,17.50
2022-08-27T15:03:07.975Z,22.65
2022-08-27T15:06:13.370Z,20.38
2022-08-27T15:09:19.634Z,18.80
2022-08-27T15:12:26.389Z,19.25
2022-08-27T15:15:32.246Z,19.58
2022-08-27T15:18:40.303Z,19.27
2022-08-27T15:21:47.546Z,19.42
2022-08-27T15:24:54.644Z,20.58
2022-08-27T15:27:59.888Z,21.50
2022-08-27T15:31:04.999Z,22.33
2022-08-27T15:34:13.243Z,21.15
2022-08-27T15:37:18.364Z,26.48
2022-08-27T15:40:24.290Z,20.90
2022-08-27T15:43:29.723Z,22.05
2022-08-27T15:46:34.876Z,21.75
2022-08-27T15:49:43.747Z,21.40
2022-08-27T15:52:49.215Z,21.65
2022-08-27T15:55:54.497Z,21.05
2022-08-27T15:58:59.612Z,20.02
2022-08-27T16:02:05.299Z,18.67
2022-08-27T16:05:13.356Z,19.92
2022-08-27T16:08:18.602Z,19.63
2022-08-27T16:11:24.036Z,19.65
2022-08-27T16:14:29.406Z,18.25
2022-08-27T16:17:34.603Z,18.17
2022-08-27T16:20:43.937Z,19.08
2022-08-27T16:23:49.264Z,17.83
2022-08-27T16:26:54.568Z,17.70
2022-08-27T16:29:59.786Z,17.20
2022-08-27T16:33:04.821Z,16.77
2022-08-27T16:36:13.316Z,18.13
2022-08-27T16:39:18.333Z,17.88
2022-08-27T16:42:23.806Z,21.50
2022-08-27T16:45:28.876Z,21.20
2022-08-27T16:48:46.552Z,20.50
2022-08-27T16:51:54.216Z,18.90
2022-08-27T16:55:00.910Z,17.15
2022-08-27T16:58:05.955Z,17.80
2022-08-27T17:01:12.557Z,19.77
2022-08-27T17:04:26.551Z,20.75
2022-08-27T17:07:38.144Z,20.58
2022-08-27T17:10:46.770Z,25.02
2022-08-27T17:13:53.129Z,23.83
2022-08-27T17:16:58.317Z,23.02
2022-08-27T17:20:03.452Z,24.48
2022-08-27T17:23:23.469Z,24.17
2022-08-27T17:26:28.962Z,28.45
2022-08-27T17:29:33.951Z,27.52
2022-08-27T17:32:40.304Z,25.60
2022-08-27T17:35:45.583Z,26.73
2022-08-27T17:38:54.058Z,26.38
2022-08-27T17:41:59.847Z,29.48
2022-08-27T17:45:05.355Z,27.50
2022-08-27T17:48:14.175Z,28.88
2022-08-27T17:51:24.628Z,27.75
2022-08-27T17:54:36.945Z,27.95
2022-08-27T17:57:42.255Z,29.77
2022-08-27T18:00:47.402Z,30.25
2022-08-27T18:03:52.774Z,28.13
2022-08-27T18:06:57.955Z,29.05
2022-08-27T18:10:06.073Z,30.15
2022-08-27T18:13:13.430Z,42.72
2022-08-27T18:16:18.891Z,33.53
2022-08-27T18:19:24.350Z,37.53
2022-08-27T18:22:29.370Z,38.70
2022-08-27T18:25:42.769Z,40.13
2022-08-27T18:31:53.183Z,36.83
2022-08-27T18:34:59.217Z,47.22
2022-08-27T18:38:04.521Z,39.97
2022-08-27T18:41:12.562Z,52.08
2022-08-27T18:44:18.127Z,45.08
2022-08-27T18:47:23.456Z,42.15
2022-08-27T18:50:28.976Z,39.50
2022-08-27T18:53:35.320Z,41.13
2022-08-27T18:56:43.086Z,39.63
2022-08-27T18:59:48.336Z,39.10
2022-08-27T19:02:54.333Z,39.85
2022-08-27T19:06:00.588Z,38.70
2022-08-27T19:09:06.220Z,40.33
2022-08-27T19:12:15.459Z,39.50
2022-08-27T19:15:21.065Z,38.60
2022-08-27T19:18:27.633Z,38.72
2022-08-27T19:21:32.964Z,38.90
2022-08-27T19:24:40.013Z,38.95
2022-08-27T19:27:48.344Z,41.30
2022-08-27T19:34:00.441Z,39.05
2022-08-27T19:37:07.263Z,41.40
2022-08-27T19:40:12.755Z,39.55
2022-08-27T19:43:22.095Z,41.83
2022-08-27T19:46:27.972Z,40.00
2022-08-27T19:49:33.579Z,41.25
2022-08-27T19:52:38.854Z,39.92
2022-08-27T19:55:46.198Z,40.15
2022-08-27T19:58:57.328Z,40.27
2022-08-27T20:02:05.417Z,41.65
2022-08-27T20:05:19.160Z,42.08
2022-08-27T20:08:25.119Z,44.13
2022-08-27T20:11:30.123Z,42.35
2022-08-27T20:14:38.039Z,42.08
2022-08-27T20:17:46.650Z,43.47
2022-08-27T20:20:56.809Z,42.58
2022-08-27T20:24:02.157Z,43.13
2022-08-27T20:27:07.591Z,43.00
2022-08-27T20:30:16.217Z,40.60
2022-08-27T20:33:21.288Z,41.47
2022-08-27T20:36:27.082Z,42.35
2022-08-27T20:39:32.470Z,42.45
2022-08-27T20:42:37.524Z,43.05
2022-08-27T20:45:45.589Z,42.67
2022-08-27T20:48:50.911Z,41.50
2022-08-27T20:52:03.262Z,45.78
2022-08-27T20:55:12.288Z,43.65
2022-08-27T20:58:29.890Z,43.67
2022-08-27T21:01:37.695Z,44.80
2022-08-27T21:04:43.634Z,43.13
2022-08-27T21:07:50.975Z,46.72
2022-08-27T21:10:57.069Z,43.63
2022-08-27T21:14:02.279Z,43.72
2022-08-27T21:17:10.115Z,43.80
2022-08-27T21:20:16.912Z,45.00
2022-08-27T21:23:22.232Z,43.95
2022-08-27T21:26:27.515Z,43.30
2022-08-27T21:29:34.038Z,45.05
2022-08-27T21:32:42.012Z,44.50
2022-08-27T21:35:47.283Z,44.22
2022-08-27T21:38:52.734Z,45.45
2022-08-27T21:41:57.876Z,47.35
2022-08-27T21:45:03.206Z,45.42
2022-08-27T21:48:12.200Z,47.88
2022-08-27T21:51:24.452Z,46.17
2022-08-27T21:54:30.326Z,47.10
2022-08-27T21:57:35.663Z,46.75
2022-08-27T22:00:45.620Z,46.28
2022-08-27T22:03:53.394Z,48.03
2022-08-27T22:06:58.433Z,47.30
2022-08-27T22:10:03.915Z,48.08
2022-08-27T22:13:09.526Z,48.22
2022-08-27T22:16:14.632Z,48.72
2022-08-27T22:19:22.791Z,47.55
2022-08-27T22:28:40.889Z,49.63
2022-08-27T22:31:46.420Z,47.90
2022-08-27T22:34:56.579Z,50.03
2022-08-27T22:38:01.968Z,50.25
2022-08-27T22:41:08.270Z,51.45
2022-08-27T22:44:13.861Z,50.00
2022-08-27T22:47:19.000Z,52.17
2022-08-27T22:50:26.889Z,51.53
2022-08-27T22:53:32.029Z,51.47
2022-08-27T22:56:37.491Z,51.78
2022-08-27T22:59:42.522Z,52.17
2022-08-27T23:02:48.623Z,53.55
2022-08-27T23:05:56.638Z,52.55
2022-08-27T23:09:02.178Z,53.40
2022-08-27T23:12:09.232Z,52.45
2022-08-27T23:15:14.805Z,53.63
2022-08-27T23:18:19.803Z,53.72
2022-08-27T23:21:28.091Z,54.22
2022-08-27T23:24:33.374Z,52.67
2022-08-27T23:27:35.969Z,53.83
2022-08-27T23:30:41.098Z,52.42
2022-08-27T23:33:46.423Z,52.22
2022-08-27T23:36:54.112Z,52.63
2022-08-27T23:39:59.327Z,54.72
2022-08-27T23:43:05.004Z,53.90
2022-08-27T23:46:10.786Z,55.42
2022-08-27T23:49:16.331Z,52.05
2022-08-27T23:52:24.176Z,52.53
2022-08-27T23:55:29.510Z,49.97
2022-08-27T23:58:34.918Z,51.47
